createdAt,value
2023-02-02T00:01:33.253Z,3.50
2023-02-02T00:04:01.652Z,4.50
2023-02-02T00:06:30.751Z,4.40
2023-02-02T00:08:59.634Z,4.20
2023-02-02T00:11:28.045Z,4.50
2023-02-02T00:13:56.312Z,5.37
2023-02-02T00:16:39.795Z,5.17
2023-02-02T00:19:09.316Z,5.23
2023-02-02T00:21:38.272Z,6.43
2023-02-02T00:24:07.466Z,5.90
2023-02-02T00:26:35.792Z,7.23
2023-02-02T00:29:04.498Z,7.23
2023-02-02T00:31:32.802Z,7.57
2023-02-02T00:34:02.429Z,7.77
2023-02-02T00:36:30.680Z,8.57
2023-02-02T00:38:58.899Z,8.93
2023-02-02T00:41:27.163Z,9.50
2023-02-02T00:44:09.191Z,10.27
2023-02-02T00:46:39.950Z,10.53
2023-02-02T00:49:09.658Z,12.13
2023-02-02T00:51:38.148Z,11.40
2023-02-02T00:54:06.474Z,12.13
2023-02-02T00:56:34.739Z,13.43
2023-02-02T00:59:02.946Z,14.20
2023-02-02T01:01:31.285Z,11.90
2023-02-02T01:04:00.004Z,12.47
2023-02-02T01:06:29.773Z,13.37
2023-02-02T01:08:57.993Z,13.37
2023-02-02T01:11:26.746Z,14.00
2023-02-02T01:13:55.032Z,15.60
2023-02-02T01:16:23.491Z,16.80
2023-02-02T01:18:52.028Z,15.20
2023-02-02T01:21:20.336Z,16.80
2023-02-02T01:23:50.045Z,16.57
2023-02-02T01:26:18.532Z,17.87
2023-02-02T01:28:47.003Z,17.03
2023-02-02T01:31:16.556Z,16.77
2023-02-02T01:33:45.160Z,16.57
2023-02-02T01:36:15.224Z,15.47
2023-02-02T01:38:43.480Z,14.93
2023-02-02T01:41:15.296Z,16.70
2023-02-02T01:43:55.090Z,16.73
2023-02-02T01:46:24.598Z,20.13
2023-02-02T01:48:55.008Z,18.70
2023-02-02T01:51:25.531Z,17.40
2023-02-02T01:53:55.008Z,17.93
2023-02-02T01:56:28.126Z,17.87
2023-02-02T01:58:56.354Z,19.17
2023-02-02T02:01:24.650Z,18.70
2023-02-02T02:03:52.921Z,20.73
2023-02-02T02:06:21.338Z,19.23
2023-02-02T02:08:53.335Z,18.70
2023-02-02T02:11:21.678Z,17.90
2023-02-02T02:14:08.501Z,15.60
2023-02-02T02:16:44.010Z,13.80
2023-02-02T02:19:22.276Z,14.17
2023-02-02T02:22:12.792Z,13.80
2023-02-02T02:25:22.676Z,12.07
2023-02-02T02:28:35.079Z,12.23
2023-02-02T02:31:23.270Z,11.67
2023-02-02T02:33:55.588Z,11.93
2023-02-02T02:36:26.779Z,11.73
2023-02-02T02:38:58.101Z,12.77
2023-02-02T02:41:28.962Z,12.33
2023-02-02T02:43:59.075Z,12.30
2023-02-02T02:46:27.428Z,11.03
2023-02-02T02:48:58.066Z,11.87
2023-02-02T02:51:46.576Z,10.27
2023-02-02T02:54:16.258Z,10.17
2023-02-02T02:56:55.271Z,10.07
2023-02-02T02:59:29.150Z,9.03
2023-02-02T03:02:02.555Z,8.97
2023-02-02T03:04:35.023Z,9.40
2023-02-02T03:07:05.951Z,8.43
2023-02-02T03:09:36.751Z,7.17
2023-02-02T03:12:05.217Z,6.73
2023-02-02T03:14:36.240Z,6.97
2023-02-02T03:17:04.543Z,7.00
2023-02-02T03:19:34.192Z,6.87
2023-02-02T03:22:02.715Z,7.40
2023-02-02T03:24:30.967Z,5.80
2023-02-02T03:26:59.291Z,6.10
2023-02-02T03:29:27.597Z,5.70
2023-02-02T03:31:55.819Z,6.30
2023-02-02T03:34:24.133Z,6.50
2023-02-02T03:36:53.816Z,8.10
2023-02-02T03:39:22.156Z,6.90
2023-02-02T03:41:50.385Z,6.10
2023-02-02T03:44:18.608Z,5.67
2023-02-02T03:46:46.841Z,6.43
2023-02-02T03:49:15.075Z,6.87
2023-02-02T03:51:44.374Z,6.10
2023-02-02T03:54:14.139Z,6.17
2023-02-02T03:56:42.473Z,6.43
2023-02-02T03:59:10.680Z,5.90
2023-02-02T04:01:38.953Z,6.43
2023-02-02T04:04:07.269Z,6.57
2023-02-02T04:06:35.585Z,6.83
2023-02-02T04:09:03.843Z,6.33
2023-02-02T04:11:33.547Z,6.13
2023-02-02T04:14:01.799Z,7.03
2023-02-02T04:16:34.837Z,9.17
2023-02-02T04:19:03.240Z,8.40
2023-02-02T04:21:31.524Z,7.23
2023-02-02T04:23:59.731Z,7.27
2023-02-02T04:26:28.551Z,7.23
2023-02-02T04:28:58.243Z,6.60
2023-02-02T04:31:27.463Z,6.80
2023-02-02T04:33:55.724Z,7.40
2023-02-02T04:36:24.006Z,7.60
2023-02-02T04:38:52.347Z,6.40
2023-02-02T04:41:20.740Z,5.80
2023-02-02T04:43:49.070Z,5.63
2023-02-02T04:46:18.818Z,5.77
2023-02-02T04:48:48.910Z,5.07
2023-02-02T04:51:18.763Z,4.93
2023-02-02T04:53:46.967Z,4.30
2023-02-02T04:56:15.840Z,4.90
2023-02-02T04:58:44.101Z,5.93
2023-02-02T05:01:12.877Z,4.87
2023-02-02T05:03:42.523Z,4.77
2023-02-02T05:06:10.753Z,4.77
2023-02-02T05:08:39.764Z,3.80
2023-02-02T05:11:09.686Z,4.03
2023-02-02T05:13:37.889Z,4.10
2023-02-02T05:16:06.989Z,4.63
2023-02-02T05:18:35.240Z,3.97
2023-02-02T05:21:05.336Z,3.97
2023-02-02T05:23:33.571Z,3.60
2023-02-02T05:26:01.884Z,3.63
2023-02-02T05:28:30.264Z,4.17
2023-02-02T05:30:58.684Z,3.80
2023-02-02T05:33:26.937Z,3.67
2023-02-02T05:35:55.214Z,2.77
2023-02-02T05:38:24.869Z,3.73
2023-02-02T05:40:53.131Z,3.70
2023-02-02T05:43:21.679Z,3.00
2023-02-02T05:45:50.110Z,2.90
2023-02-02T05:48:18.377Z,3.43
2023-02-02T05:50:46.760Z,3.23
2023-02-02T05:53:15.465Z,3.63
2023-02-02T05:55:45.785Z,3.20
2023-02-02T05:58:14.008Z,3.93
2023-02-02T06:00:42.368Z,3.13
2023-02-02T06:03:13.043Z,3.33
2023-02-02T06:05:41.481Z,3.33
2023-02-02T06:08:09.723Z,3.57
2023-02-02T06:10:40.628Z,3.70
2023-02-02T06:13:10.369Z,3.33
2023-02-02T06:15:38.794Z,4.13
2023-02-02T06:18:08.508Z,5.27
2023-02-02T06:20:37.069Z,9.20
2023-02-02T06:23:05.463Z,9.43
2023-02-02T06:25:34.468Z,11.87
2023-02-02T06:28:02.782Z,14.10
2023-02-02T06:30:32.525Z,13.57
2023-02-02T06:33:01.163Z,12.40
2023-02-02T06:35:29.437Z,10.60
2023-02-02T06:37:57.738Z,9.13
2023-02-02T06:40:25.996Z,5.33
2023-02-02T06:42:57.769Z,5.57
2023-02-02T06:45:26.325Z,5.17
2023-02-02T06:47:56.185Z,4.03
2023-02-02T06:50:24.440Z,4.77
2023-02-02T06:52:52.865Z,4.90
2023-02-02T06:55:21.158Z,5.13
2023-02-02T06:57:49.406Z,4.40
2023-02-02T07:00:19.743Z,4.70
2023-02-02T07:02:48.958Z,5.77
2023-02-02T07:05:19.578Z,5.83
2023-02-02T07:07:47.865Z,5.53
2023-02-02T07:11:13.856Z,6.50
2023-02-02T07:13:04.458Z,5.83
2023-02-02T07:15:32.777Z,6.47
2023-02-02T07:18:01.025Z,7.13
2023-02-02T07:20:30.642Z,6.57
2023-02-02T07:22:58.971Z,7.77
2023-02-02T07:25:27.579Z,7.67
2023-02-02T07:27:56.026Z,8.50
2023-02-02T07:30:25.542Z,8.00
2023-02-02T07:32:53.911Z,8.33
2023-02-02T07:35:22.268Z,8.80
2023-02-02T07:37:54.562Z,9.10
2023-02-02T07:40:22.847Z,8.30
2023-02-02T07:42:51.133Z,6.60
2023-02-02T07:45:24.687Z,7.17
2023-02-02T07:47:59.184Z,7.17
2023-02-02T07:50:27.631Z,7.80
2023-02-02T07:52:57.366Z,7.17
2023-02-02T07:55:25.704Z,6.70
2023-02-02T07:57:55.524Z,6.80
2023-02-02T08:00:25.145Z,6.90
2023-02-02T08:02:53.693Z,6.73
2023-02-02T08:05:23.093Z,7.17
2023-02-02T08:07:51.562Z,7.23
2023-02-02T08:10:21.442Z,6.43
2023-02-02T08:12:49.797Z,6.63
2023-02-02T08:15:18.268Z,6.70
2023-02-02T08:17:49.949Z,6.77
2023-02-02T08:20:18.338Z,6.37
2023-02-02T08:22:46.727Z,6.33
2023-02-02T08:25:15.032Z,6.60
2023-02-02T08:27:44.738Z,6.00
2023-02-02T08:30:13.995Z,6.93
2023-02-02T08:32:42.318Z,6.00
2023-02-02T08:35:10.775Z,10.67
2023-02-02T08:37:39.067Z,8.43
2023-02-02T08:40:08.907Z,10.67
2023-02-02T08:42:37.184Z,7.90
2023-02-02T08:46:01.566Z,8.93
2023-02-02T08:48:10.718Z,8.23
2023-02-02T08:50:40.345Z,7.43
2023-02-02T08:53:08.609Z,7.80
2023-02-02T08:55:36.919Z,7.63
2023-02-02T08:58:05.386Z,7.33
2023-02-02T09:00:35.121Z,5.20
2023-02-02T09:03:03.371Z,4.70
2023-02-02T09:05:31.728Z,6.03
2023-02-02T09:07:59.998Z,5.70
2023-02-02T09:10:28.616Z,5.87
2023-02-02T09:12:56.872Z,8.50
2023-02-02T09:15:25.487Z,7.30
2023-02-02T09:17:55.381Z,6.67
2023-02-02T09:20:23.731Z,8.63
2023-02-02T09:22:52.032Z,8.70
2023-02-02T09:25:20.285Z,6.07
2023-02-02T09:27:48.564Z,6.97
2023-02-02T09:30:17.073Z,8.90
2023-02-02T09:32:45.719Z,9.53
2023-02-02T09:35:15.441Z,10.07
2023-02-02T09:37:45.393Z,12.77
2023-02-02T09:40:17.814Z,10.83
2023-02-02T09:43:00.649Z,8.17
2023-02-02T09:45:32.624Z,8.40
2023-02-02T09:48:05.147Z,10.70
2023-02-02T09:50:40.928Z,10.97
2023-02-02T09:53:16.132Z,7.53
2023-02-02T09:55:45.356Z,7.33
2023-02-02T09:58:16.039Z,8.37
2023-02-02T10:00:45.692Z,7.93
2023-02-02T10:03:16.867Z,7.37
2023-02-02T10:05:50.417Z,8.13
2023-02-02T10:08:34.108Z,9.17
2023-02-02T10:11:05.037Z,8.13
2023-02-02T10:13:34.198Z,8.17
2023-02-02T10:16:05.429Z,9.73
2023-02-02T10:18:40.633Z,10.33
2023-02-02T10:21:12.687Z,16.07
2023-02-02T10:23:43.045Z,10.37
2023-02-02T10:26:16.467Z,10.47
2023-02-02T10:28:49.746Z,10.43
2023-02-02T10:31:27.743Z,10.77
2023-02-02T10:34:03.576Z,15.10
2023-02-02T10:36:39.714Z,8.67
2023-02-02T10:39:11.755Z,10.33
2023-02-02T10:41:42.582Z,8.50
2023-02-02T10:44:18.978Z,10.90
2023-02-02T10:46:48.265Z,7.83
2023-02-02T10:49:20.373Z,7.60
2023-02-02T10:51:55.233Z,5.80
2023-02-02T10:54:55.770Z,4.73
2023-02-02T10:57:38.028Z,5.17
2023-02-02T11:00:10.762Z,4.93
2023-02-02T11:02:39.076Z,4.70
2023-02-02T11:05:24.962Z,4.10
2023-02-02T11:07:54.955Z,4.70
2023-02-02T11:10:23.389Z,4.97
2023-02-02T11:12:53.711Z,5.67
2023-02-02T11:15:27.009Z,5.20
2023-02-02T11:17:55.519Z,4.77
2023-02-02T11:20:25.762Z,5.93
2023-02-02T11:23:05.365Z,5.67
2023-02-02T11:25:35.032Z,5.80
2023-02-02T11:28:11.584Z,5.57
2023-02-02T11:30:39.929Z,5.03
2023-02-02T11:33:22.355Z,4.60
2023-02-02T11:35:54.928Z,4.90
2023-02-02T11:38:24.639Z,3.83
2023-02-02T11:40:57.586Z,5.60
2023-02-02T11:43:28.471Z,3.43
2023-02-02T11:46:00.262Z,4.33
2023-02-02T11:48:32.548Z,4.80
2023-02-02T11:51:01.407Z,20.60
2023-02-02T11:53:32.381Z,7.40
2023-02-02T11:56:03.041Z,10.07
2023-02-02T11:58:31.539Z,8.97
2023-02-02T12:01:01.661Z,13.03
2023-02-02T12:03:34.563Z,9.07
2023-02-02T12:06:03.251Z,9.10
2023-02-02T12:08:33.001Z,5.20
2023-02-02T12:11:02.324Z,6.17
2023-02-02T12:13:43.923Z,6.20
2023-02-02T12:16:19.097Z,6.00
2023-02-02T12:18:53.378Z,6.37
2023-02-02T12:21:22.920Z,5.33
2023-02-02T12:24:13.431Z,5.03
2023-02-02T12:26:42.447Z,4.50
2023-02-02T12:29:23.182Z,4.60
2023-02-02T12:32:01.629Z,3.87
2023-02-02T12:34:33.983Z,4.50
2023-02-02T12:37:04.667Z,3.87
2023-02-02T12:39:37.489Z,5.30
2023-02-02T12:42:53.782Z,6.27
2023-02-02T12:45:38.087Z,5.67
2023-02-02T12:48:17.705Z,5.40
2023-02-02T12:50:55.035Z,5.97
2023-02-02T12:53:32.387Z,6.93
2023-02-02T12:56:06.817Z,6.53
2023-02-02T12:58:38.087Z,5.90
2023-02-02T13:01:13.474Z,4.83
2023-02-02T13:03:56.238Z,5.33
2023-02-02T13:06:53.900Z,6.50
2023-02-02T13:09:24.758Z,4.43
2023-02-02T13:11:55.956Z,4.90
2023-02-02T13:14:25.567Z,4.67
2023-02-02T13:16:57.439Z,5.30
2023-02-02T13:19:30.153Z,5.17
2023-02-02T13:21:59.135Z,5.67
2023-02-02T13:24:31.188Z,4.73
2023-02-02T13:27:01.307Z,4.83
2023-02-02T13:29:33.282Z,4.70
2023-02-02T13:32:04.420Z,4.77
2023-02-02T13:34:40.065Z,4.80
2023-02-02T13:37:17.190Z,5.20
2023-02-02T13:39:46.686Z,4.77
2023-02-02T13:42:27.515Z,5.90
2023-02-02T13:44:58.210Z,6.67
2023-02-02T13:47:29.139Z,5.47
2023-02-02T13:49:58.253Z,4.70
2023-02-02T13:52:36.679Z,5.37
2023-02-02T13:55:43.765Z,3.80
2023-02-02T13:58:23.984Z,4.23
2023-02-02T14:00:53.065Z,3.63
2023-02-02T14:03:29.803Z,4.23
2023-02-02T14:06:08.569Z,4.00
2023-02-02T14:08:36.887Z,3.90
2023-02-02T14:11:06.282Z,4.33
2023-02-02T14:14:00.349Z,3.17
2023-02-02T14:16:44.776Z,3.50
2023-02-02T14:19:16.159Z,3.60
2023-02-02T14:22:03.949Z,4.27
2023-02-02T14:24:44.848Z,3.60
2023-02-02T14:27:58.961Z,4.10
2023-02-02T14:30:35.303Z,4.00
2023-02-02T14:33:28.564Z,3.90
2023-02-02T14:36:04.129Z,3.77
2023-02-02T14:38:54.351Z,3.30
2023-02-02T14:41:40.273Z,2.97
2023-02-02T14:44:08.572Z,2.70
2023-02-02T14:46:48.204Z,2.70
2023-02-02T14:49:21.156Z,2.93
2023-02-02T14:51:57.300Z,2.87
2023-02-02T14:54:34.354Z,3.67
2023-02-02T14:57:04.101Z,2.77
2023-02-02T14:59:34.794Z,2.90
2023-02-02T15:02:16.182Z,3.57
2023-02-02T15:04:48.028Z,3.20
2023-02-02T15:07:55.530Z,3.47
2023-02-02T15:10:58.046Z,4.07
2023-02-02T15:13:26.455Z,3.40
2023-02-02T15:16:04.522Z,4.93
2023-02-02T15:18:38.886Z,4.50
2023-02-02T15:21:07.163Z,4.03
2023-02-02T15:23:36.201Z,4.30
2023-02-02T15:26:06.181Z,3.73
2023-02-02T15:28:39.565Z,3.60
2023-02-02T15:31:13.702Z,5.90
2023-02-02T15:33:44.136Z,4.73
2023-02-02T15:36:13.686Z,4.50
2023-02-02T15:38:42.396Z,3.50
2023-02-02T15:41:15.650Z,4.10
2023-02-02T15:43:43.903Z,6.30
2023-02-02T15:46:12.980Z,4.03
2023-02-02T15:48:43.891Z,4.17
2023-02-02T15:51:17.166Z,4.63
2023-02-02T15:53:49.823Z,5.33
2023-02-02T15:56:27.012Z,4.20
2023-02-02T15:58:56.178Z,3.80
2023-02-02T16:01:24.918Z,4.13
2023-02-02T16:03:56.583Z,4.60
2023-02-02T16:06:24.858Z,4.27
2023-02-02T16:08:53.466Z,4.43
2023-02-02T16:11:23.353Z,3.97
2023-02-02T16:13:59.253Z,4.50
2023-02-02T16:16:29.105Z,5.00
2023-02-02T16:19:14.983Z,5.73
2023-02-02T16:21:46.477Z,5.57
2023-02-02T16:24:17.130Z,5.57
2023-02-02T16:26:45.427Z,5.73
2023-02-02T16:29:17.147Z,5.47
2023-02-02T16:31:46.149Z,5.20
2023-02-02T16:34:19.600Z,6.37
2023-02-02T16:37:05.767Z,5.03
2023-02-02T16:39:34.068Z,4.93
2023-02-02T16:42:12.397Z,4.90
2023-02-02T16:44:42.964Z,3.80
2023-02-02T16:47:33.259Z,3.77
2023-02-02T16:50:27.425Z,4.50
2023-02-02T16:52:56.772Z,4.97
2023-02-02T16:55:27.932Z,4.83
2023-02-02T16:57:59.804Z,6.20
2023-02-02T17:00:29.327Z,5.03
2023-02-02T17:02:59.499Z,4.60
2023-02-02T17:05:29.809Z,4.13
2023-02-02T17:08:00.583Z,4.00
2023-02-02T17:10:31.170Z,4.80
2023-02-02T17:13:00.298Z,4.03
2023-02-02T17:15:34.148Z,3.37
2023-02-02T17:18:03.006Z,4.73
2023-02-02T17:20:34.503Z,4.63
2023-02-02T17:23:03.875Z,4.50
2023-02-02T17:25:34.451Z,4.77
2023-02-02T17:28:02.726Z,5.73
2023-02-02T17:30:31.092Z,5.07
2023-02-02T17:32:59.460Z,4.80
2023-02-02T17:35:37.095Z,5.37
2023-02-02T17:38:13.463Z,4.93
2023-02-02T17:40:41.814Z,4.87
2023-02-02T17:43:10.610Z,5.47
2023-02-02T17:45:39.127Z,4.63
2023-02-02T17:48:07.967Z,5.03
2023-02-02T17:50:36.623Z,5.63
2023-02-02T17:53:04.908Z,5.13
2023-02-02T17:55:37.725Z,5.20
2023-02-02T17:58:06.393Z,6.40
2023-02-02T18:00:34.721Z,5.50
2023-02-02T18:03:13.510Z,5.43
2023-02-02T18:05:43.584Z,4.90
2023-02-02T18:08:12.497Z,5.60
2023-02-02T18:10:42.329Z,4.67
2023-02-02T18:13:11.973Z,4.47
2023-02-02T18:15:40.404Z,4.97
2023-02-02T18:18:08.692Z,4.53
2023-02-02T18:20:37.376Z,5.40
2023-02-02T18:23:05.687Z,5.80
2023-02-02T18:25:34.079Z,5.10
2023-02-02T18:28:03.866Z,5.10
2023-02-02T18:30:32.565Z,5.17
2023-02-02T18:33:01.005Z,5.97
2023-02-02T18:35:29.378Z,5.23
2023-02-02T18:37:57.932Z,5.20
2023-02-02T18:40:26.187Z,4.40
2023-02-02T18:42:54.462Z,5.10
2023-02-02T18:45:24.621Z,6.03
2023-02-02T18:47:53.042Z,5.07
2023-02-02T18:50:22.112Z,5.53
2023-02-02T18:52:50.424Z,4.20
2023-02-02T18:55:18.815Z,5.80
2023-02-02T18:57:47.198Z,4.60
2023-02-02T19:00:16.862Z,4.53
2023-02-02T19:02:46.719Z,3.90
2023-02-02T19:05:32.068Z,4.53
2023-02-02T19:08:00.558Z,3.97
2023-02-02T19:10:28.973Z,4.50
2023-02-02T19:12:59.238Z,3.50
2023-02-02T19:15:27.736Z,4.07
2023-02-02T19:17:58.062Z,3.73
2023-02-02T19:20:27.972Z,3.57
2023-02-02T19:23:04.063Z,4.13
2023-02-02T19:25:32.591Z,3.73
2023-02-02T19:28:01.844Z,3.70
2023-02-02T19:30:30.336Z,4.13
2023-02-02T19:33:00.046Z,4.57
2023-02-02T19:35:28.953Z,4.37
2023-02-02T19:38:01.408Z,3.70
2023-02-02T19:40:29.723Z,4.10
2023-02-02T19:42:58.940Z,3.53
2023-02-02T19:45:28.691Z,4.27
2023-02-02T19:47:57.354Z,3.73
2023-02-02T19:50:28.422Z,3.57
2023-02-02T19:52:57.309Z,4.80
2023-02-02T19:55:27.222Z,4.90
2023-02-02T19:57:59.306Z,4.67
2023-02-02T20:00:29.356Z,5.10
2023-02-02T20:02:59.526Z,5.00
2023-02-02T20:05:29.724Z,6.10
2023-02-02T20:08:00.270Z,4.77
2023-02-02T20:10:30.269Z,4.97
2023-02-02T20:12:58.538Z,4.97
2023-02-02T20:15:30.076Z,4.60
2023-02-02T20:17:58.822Z,4.20
2023-02-02T20:20:30.065Z,4.67
2023-02-02T20:22:58.366Z,4.60
2023-02-02T20:25:26.703Z,4.63
2023-02-02T20:27:55.054Z,4.20
2023-02-02T20:30:25.445Z,4.17
2023-02-02T20:32:56.420Z,5.03
2023-02-02T20:35:27.812Z,4.60
2023-02-02T20:37:57.545Z,5.40
2023-02-02T20:40:26.965Z,5.07
2023-02-02T20:42:56.994Z,4.27
2023-02-02T20:45:26.365Z,4.70
2023-02-02T20:47:54.726Z,3.90
2023-02-02T20:50:23.782Z,4.70
2023-02-02T20:52:53.644Z,4.70
2023-02-02T20:55:23.725Z,4.70
2023-02-02T20:57:52.019Z,4.50
2023-02-02T21:00:23.121Z,4.10
2023-02-02T21:02:52.199Z,4.57
2023-02-02T21:05:20.484Z,5.27
2023-02-02T21:07:48.865Z,4.87
2023-02-02T21:10:17.434Z,4.63
2023-02-02T21:12:50.863Z,5.73
2023-02-02T21:15:20.294Z,5.80
2023-02-02T21:17:48.553Z,5.27
2023-02-02T21:20:16.909Z,4.67
2023-02-02T21:22:45.192Z,5.63
2023-02-02T21:25:13.446Z,5.73
2023-02-02T21:27:42.280Z,6.87
2023-02-02T21:30:14.071Z,5.60
2023-02-02T21:32:42.587Z,6.23
2023-02-02T21:35:13.552Z,6.47
2023-02-02T21:37:44.272Z,6.13
2023-02-02T21:40:14.587Z,6.13
2023-02-02T21:42:49.920Z,7.20
2023-02-02T21:45:34.710Z,7.03
2023-02-02T21:48:04.264Z,5.90
2023-02-02T21:50:34.083Z,6.53
2023-02-02T21:53:20.864Z,6.83
2023-02-02T21:55:52.226Z,5.90
2023-02-02T21:58:22.535Z,6.60
2023-02-02T22:00:52.504Z,6.20
2023-02-02T22:03:33.035Z,6.53
2023-02-02T22:06:09.432Z,6.50
2023-02-02T22:08:38.064Z,6.90
2023-02-02T22:11:06.635Z,6.20
2023-02-02T22:13:35.606Z,6.50
2023-02-02T22:16:06.356Z,6.00
2023-02-02T22:18:35.010Z,5.33
2023-02-02T22:21:03.440Z,6.03
2023-02-02T22:23:31.715Z,5.90
2023-02-02T22:26:00.148Z,5.30
2023-02-02T22:28:29.558Z,4.97
2023-02-02T22:30:58.651Z,4.93
2023-02-02T22:33:28.420Z,4.17
2023-02-02T22:35:56.767Z,4.50
2023-02-02T22:38:25.806Z,4.30
2023-02-02T22:40:54.308Z,4.57
2023-02-02T22:43:22.697Z,4.90
2023-02-02T22:45:51.047Z,4.47
2023-02-02T22:48:19.336Z,4.50
2023-02-02T22:50:48.989Z,4.30
2023-02-02T22:53:17.255Z,3.60
2023-02-02T22:55:45.594Z,4.17
2023-02-02T22:58:13.867Z,4.17
2023-02-02T23:00:42.188Z,3.83
2023-02-02T23:03:10.493Z,4.57
2023-02-02T23:05:38.896Z,4.00
2023-02-02T23:08:08.750Z,4.10
2023-02-02T23:10:37.061Z,3.90
2023-02-02T23:13:06.041Z,4.13
2023-02-02T23:15:34.765Z,3.70
2023-02-02T23:18:03.301Z,4.60
2023-02-02T23:20:31.537Z,4.47
2023-02-02T23:22:59.852Z,4.30
2023-02-02T23:25:29.501Z,4.27
2023-02-02T23:27:57.763Z,4.20
2023-02-02T23:30:26.274Z,3.63
2023-02-02T23:32:54.641Z,4.80
2023-02-02T23:35:22.886Z,3.70
2023-02-02T23:37:51.112Z,4.20
2023-02-02T23:40:19.821Z,4.33
2023-02-02T23:42:49.455Z,4.50
2023-02-02T23:45:17.838Z,4.20
2023-02-02T23:47:46.149Z,4.30
2023-02-02T23:50:14.460Z,4.10
2023-02-02T23:52:42.702Z,4.63
2023-02-02T23:55:11.072Z,4.13
2023-02-02T23:57:39.402Z,5.00
